Time;durP1;ratioP1;P1;durP2;ratioP2;P2;SDS_P1;SDS_P2;PMS_P1;PMS_P2;Temp;Humidity;BMP_temperature;BMP_pressure;BME280_temperature;BME280_humidity;BME280_pressure;Samples;Min_cycle;Max_cycle;Signal;HPM_P1;HPM_P2
2023/01/25 00:00:17;;;;;;;53.28;27.98;;;;;;;;;;4994579;28;20014;-74
2023/01/25 00:02:43;;;;;;;52.78;26.52;;;;;;;;;;5006979;28;20034;-75
2023/01/25 00:05:09;;;;;;;49.55;25.38;;;;;;;;;;5001183;28;20021;-75
2023/01/25 00:07:35;;;;;;;53.38;27.70;;;;;;;;;;4999723;28;20113;-75
2023/01/25 00:10:01;;;;;;;49.78;26.30;;;;;;;;;;5006987;28;20022;-75
2023/01/25 00:12:27;;;;;;;52.33;26.02;;;;;;;;;;4995765;28;20038;-76
2023/01/25 00:14:53;;;;;;;53.97;28.02;;;;;;;;;;5004235;28;20519;-75
2023/01/25 00:17:19;;;;;;;54.65;27.60;;;;;;;;;;5002023;28;20030;-75
2023/01/25 00:19:54;;;;;;;53.35;27.85;;;;;;;;;;4998759;28;20034;-74
2023/01/25 00:22:20;;;;;;;52.85;27.52;;;;;;;;;;5008731;28;20022;-76
2023/01/25 00:24:46;;;;;;;55.33;26.48;;;;;;;;;;4997882;28;20026;-76
2023/01/25 00:27:12;;;;;;;54.97;28.45;;;;;;;;;;5001636;28;20109;-74
2023/01/25 00:29:38;;;;;;;54.15;29.15;;;;;;;;;;5004678;28;20025;-74
2023/01/25 00:32:28;;;;;;;57.17;29.13;;;;;;;;;;4996018;28;20081;-75
2023/01/25 00:34:54;;;;;;;56.13;27.88;;;;;;;;;;4985826;28;20022;-75
2023/01/25 00:37:23;;;;;;;56.00;27.65;;;;;;;;;;5001943;28;20038;-76
2023/01/25 00:39:49;;;;;;;50.85;26.98;;;;;;;;;;5006219;28;20025;-76
2023/01/25 00:42:16;;;;;;;51.45;27.55;;;;;;;;;;4995466;28;20022;-75
2023/01/25 00:44:42;;;;;;;54.80;27.58;;;;;;;;;;5005947;28;20408;-76
2023/01/25 00:47:11;;;;;;;54.35;28.08;;;;;;;;;;5001114;28;20030;-75
2023/01/25 00:49:38;;;;;;;57.92;29.17;;;;;;;;;;5002512;28;20026;-76
2023/01/25 00:52:04;;;;;;;53.38;27.25;;;;;;;;;;5013719;28;20169;-75
2023/01/25 00:54:30;;;;;;;55.60;29.60;;;;;;;;;;4998940;28;20160;-75
2023/01/25 00:56:56;;;;;;;61.67;29.55;;;;;;;;;;5008805;28;20468;-75
2023/01/25 00:59:23;;;;;;;52.92;27.42;;;;;;;;;;5003467;28;20029;-75
2023/01/25 01:01:50;;;;;;;52.75;25.85;;;;;;;;;;4999110;28;20036;-75
2023/01/25 01:04:16;;;;;;;56.13;29.27;;;;;;;;;;5011451;28;20029;-76
2023/01/25 01:06:42;;;;;;;54.60;27.40;;;;;;;;;;4997467;28;20029;-76
2023/01/25 01:09:15;;;;;;;53.63;28.63;;;;;;;;;;5002565;28;20456;-74
2023/01/25 01:11:42;;;;;;;56.30;29.33;;;;;;;;;;5005081;28;20036;-74
2023/01/25 01:14:08;;;;;;;53.55;27.45;;;;;;;;;;4995230;28;20250;-74
2023/01/25 01:16:34;;;;;;;53.80;26.83;;;;;;;;;;5008049;28;20026;-75
2023/01/25 01:19:00;;;;;;;53.42;26.95;;;;;;;;;;4999258;28;20093;-75
2023/01/25 01:21:26;;;;;;;49.42;25.95;;;;;;;;;;5000346;28;20107;-74
2023/01/25 01:23:53;;;;;;;47.70;24.88;;;;;;;;;;5004916;28;20032;-74
2023/01/25 01:26:20;;;;;;;38.20;22.55;;;;;;;;;;4995183;28;20040;-75
2023/01/25 01:28:46;;;;;;;43.10;21.38;;;;;;;;;;4995553;28;20041;-74
2023/01/25 01:31:13;;;;;;;36.33;19.92;;;;;;;;;;5002449;28;20122;-73
2023/01/25 01:33:39;;;;;;;35.28;20.38;;;;;;;;;;5004288;28;20388;-76
2023/01/25 01:36:13;;;;;;;30.25;15.80;;;;;;;;;;4995277;28;20030;-74
2023/01/25 01:38:39;;;;;;;35.30;18.02;;;;;;;;;;4981437;28;20010;-74
2023/01/25 01:41:05;;;;;;;32.53;17.83;;;;;;;;;;5007206;28;20050;-73
2023/01/25 01:43:31;;;;;;;33.60;18.95;;;;;;;;;;5006772;28;20033;-72
2023/01/25 01:45:59;;;;;;;33.55;18.35;;;;;;;;;;5000002;28;20105;-73
2023/01/25 01:48:37;;;;;;;34.17;18.92;;;;;;;;;;5011093;28;20072;-77
2023/01/25 01:51:10;;;;;;;32.42;16.98;;;;;;;;;;5002637;28;20105;-74
2023/01/25 01:53:37;;;;;;;30.42;16.92;;;;;;;;;;5002537;28;20050;-74
2023/01/25 01:56:05;;;;;;;37.58;19.40;;;;;;;;;;5010757;28;20029;-73
2023/01/25 01:58:32;;;;;;;32.42;16.20;;;;;;;;;;4997815;28;20048;-74
2023/01/25 02:00:58;;;;;;;33.03;17.55;;;;;;;;;;5002601;28;20038;-74
2023/01/25 02:03:24;;;;;;;32.22;16.05;;;;;;;;;;5002072;28;20034;-74
2023/01/25 02:05:50;;;;;;;30.52;16.90;;;;;;;;;;4991268;28;20035;-74
2023/01/25 02:08:16;;;;;;;30.60;17.15;;;;;;;;;;5007818;28;20041;-74
2023/01/25 02:10:43;;;;;;;33.55;17.40;;;;;;;;;;4999267;28;20472;-75
2023/01/25 02:13:09;;;;;;;32.40;16.70;;;;;;;;;;5005618;28;20061;-75
2023/01/25 02:15:38;;;;;;;31.27;17.80;;;;;;;;;;5006476;28;20467;-75
2023/01/25 02:18:04;;;;;;;32.05;17.05;;;;;;;;;;4998535;28;20496;-75
2023/01/25 02:20:36;;;;;;;29.45;15.88;;;;;;;;;;5011333;28;20053;-75
2023/01/25 02:23:11;;;;;;;29.58;16.27;;;;;;;;;;5002618;28;20050;-74
2023/01/25 02:25:37;;;;;;;32.38;17.40;;;;;;;;;;5002122;28;20033;-75
2023/01/25 02:28:06;;;;;;;31.17;16.77;;;;;;;;;;4996187;28;20026;-75
2023/01/25 02:30:33;;;;;;;33.83;16.30;;;;;;;;;;4981148;28;20040;-76
2023/01/25 02:32:59;;;;;;;31.05;16.77;;;;;;;;;;5007259;28;20027;-74
2023/01/25 02:35:36;;;;;;;34.92;17.33;;;;;;;;;;5005643;28;20025;-72
2023/01/25 02:38:02;;;;;;;32.25;17.90;;;;;;;;;;4998967;28;20022;-73
2023/01/25 02:40:30;;;;;;;37.15;18.17;;;;;;;;;;5010060;28;20022;-73
2023/01/25 02:42:56;;;;;;;32.08;18.20;;;;;;;;;;5000701;28;20375;-74
2023/01/25 02:45:24;;;;;;;32.35;17.90;;;;;;;;;;5003503;28;20084;-73
2023/01/25 02:47:50;;;;;;;32.85;17.40;;;;;;;;;;5007599;28;20033;-74
2023/01/25 02:50:16;;;;;;;32.05;18.33;;;;;;;;;;4996322;28;20108;-74
2023/01/25 02:52:42;;;;;;;37.45;19.83;;;;;;;;;;5007217;28;20030;-75
2023/01/25 02:55:09;;;;;;;33.72;17.27;;;;;;;;;;5002105;28;20017;-75
2023/01/25 02:57:35;;;;;;;30.38;16.83;;;;;;;;;;5001394;28;20503;-74
2023/01/25 03:00:01;;;;;;;33.15;17.45;;;;;;;;;;5009005;28;20026;-75
2023/01/25 03:02:27;;;;;;;34.45;19.40;;;;;;;;;;4997001;28;20037;-75
2023/01/25 03:04:53;;;;;;;33.03;17.52;;;;;;;;;;5006878;28;20026;-74
2023/01/25 03:07:19;;;;;;;29.23;17.58;;;;;;;;;;5003033;28;20030;-75
2023/01/25 03:09:45;;;;;;;31.00;15.25;;;;;;;;;;4999314;28;20088;-74
2023/01/25 03:12:11;;;;;;;24.83;13.55;;;;;;;;;;5009354;28;20113;-74
2023/01/25 03:14:37;;;;;;;25.98;15.20;;;;;;;;;;4997578;28;20014;-74
2023/01/25 03:17:03;;;;;;;26.80;14.68;;;;;;;;;;5004925;28;20396;-72
2023/01/25 03:19:29;;;;;;;27.77;14.95;;;;;;;;;;5004724;28;20071;-74
2023/01/25 03:21:56;;;;;;;31.73;17.25;;;;;;;;;;4997863;28;20030;-75
2023/01/25 03:24:22;;;;;;;33.50;18.35;;;;;;;;;;5007964;28;20083;-75
2023/01/25 03:29:33;;;;;;;30.27;17.98;;;;;;;;;;5004973;28;20040;-75
2023/01/25 03:31:59;;;;;;;41.40;21.67;;;;;;;;;;4997315;28;20491;-75
2023/01/25 03:34:25;;;;;;;28.63;17.15;;;;;;;;;;5009289;28;20053;-74
2023/01/25 03:36:51;;;;;;;33.20;18.08;;;;;;;;;;4999719;28;20049;-75
2023/01/25 03:39:17;;;;;;;27.10;15.00;;;;;;;;;;5004429;28;20057;-75
2023/01/25 03:41:43;;;;;;;26.98;16.05;;;;;;;;;;5007120;28;20075;-75
2023/01/25 03:44:10;;;;;;;27.38;15.77;;;;;;;;;;4996305;28;20338;-75
2023/01/25 03:46:36;;;;;;;25.65;14.57;;;;;;;;;;5008709;28;20058;-75
2023/01/25 03:49:03;;;;;;;24.98;13.65;;;;;;;;;;5000450;28;20030;-75
2023/01/25 03:51:29;;;;;;;23.45;14.13;;;;;;;;;;5001101;28;20073;-73
2023/01/25 03:53:55;;;;;;;24.13;13.45;;;;;;;;;;5006290;28;20022;-73
2023/01/25 03:56:21;;;;;;;27.00;15.45;;;;;;;;;;4996330;28;20023;-73
2023/01/25 03:58:47;;;;;;;22.92;13.98;;;;;;;;;;5006441;28;20027;-71
2023/01/25 04:01:13;;;;;;;25.35;13.70;;;;;;;;;;5000344;28;20048;-74
2023/01/25 04:03:39;;;;;;;21.77;13.40;;;;;;;;;;4999872;28;20026;-74
2023/01/25 04:06:05;;;;;;;28.77;15.50;;;;;;;;;;5008450;28;20026;-74
2023/01/25 04:08:31;;;;;;;26.23;14.70;;;;;;;;;;4995652;28;20026;-74
2023/01/25 04:11:01;;;;;;;26.63;16.40;;;;;;;;;;5005421;28;20377;-74
2023/01/25 04:13:28;;;;;;;28.45;16.08;;;;;;;;;;5002252;28;20370;-74
2023/01/25 04:15:54;;;;;;;26.05;14.05;;;;;;;;;;4997805;28;20029;-74
2023/01/25 04:18:20;;;;;;;22.08;13.55;;;;;;;;;;5007480;28;20053;-74
2023/01/25 04:20:46;;;;;;;24.77;13.25;;;;;;;;;;4997740;28;20432;-74
2023/01/25 04:23:12;;;;;;;27.33;15.00;;;;;;;;;;5003517;28;20030;-74
2023/01/25 04:25:38;;;;;;;25.85;14.10;;;;;;;;;;5005274;28;20109;-74
2023/01/25 04:28:04;;;;;;;22.95;13.05;;;;;;;;;;4995930;28;20030;-74
2023/01/25 04:30:30;;;;;;;20.67;13.02;;;;;;;;;;5008396;28;20026;-75
2023/01/25 04:32:56;;;;;;;24.42;15.15;;;;;;;;;;4999052;28;20061;-74
2023/01/25 04:35:22;;;;;;;25.48;14.48;;;;;;;;;;5000268;28;20133;-76
2023/01/25 04:37:56;;;;;;;27.50;15.70;;;;;;;;;;5004522;28;20500;-73
2023/01/25 04:40:22;;;;;;;27.08;15.68;;;;;;;;;;4995279;28;20092;-75
2023/01/25 04:42:48;;;;;;;27.23;15.55;;;;;;;;;;5006512;28;20030;-76
2023/01/25 04:45:14;;;;;;;29.52;16.77;;;;;;;;;;5001376;28;20026;-75
2023/01/25 04:47:40;;;;;;;26.83;15.57;;;;;;;;;;4998944;28;20029;-76
2023/01/25 04:50:06;;;;;;;29.27;15.73;;;;;;;;;;5008542;28;20108;-76
2023/01/25 04:52:32;;;;;;;25.88;15.27;;;;;;;;;;4978833;28;20048;-75
2023/01/25 04:54:58;;;;;;;25.27;14.80;;;;;;;;;;5003787;28;20030;-75
2023/01/25 04:57:24;;;;;;;26.65;15.38;;;;;;;;;;5002911;28;20104;-73
2023/01/25 04:59:50;;;;;;;26.30;15.07;;;;;;;;;;4997473;28;20022;-73
2023/01/25 05:02:16;;;;;;;27.10;16.60;;;;;;;;;;5007828;28;20361;-74
2023/01/25 05:04:42;;;;;;;28.70;16.20;;;;;;;;;;4995484;28;20033;-75
2023/01/25 05:07:08;;;;;;;29.30;16.85;;;;;;;;;;5002733;28;20029;-74
2023/01/25 05:09:34;;;;;;;30.20;16.25;;;;;;;;;;5003700;28;20036;-75
2023/01/25 05:12:00;;;;;;;29.27;16.73;;;;;;;;;;4994711;28;20030;-73
2023/01/25 05:14:26;;;;;;;32.20;17.00;;;;;;;;;;5008691;28;20026;-72
2023/01/25 05:16:52;;;;;;;32.60;16.50;;;;;;;;;;5002937;28;20048;-74
2023/01/25 05:19:18;;;;;;;39.40;17.85;;;;;;;;;;5006329;28;20473;-74
2023/01/25 05:21:56;;;;;;;34.10;19.13;;;;;;;;;;5010517;28;20535;-73
2023/01/25 05:24:23;;;;;;;28.80;17.33;;;;;;;;;;5000245;28;20023;-74
2023/01/25 05:27:04;;;;;;;34.78;18.58;;;;;;;;;;5010975;28;20084;-74
2023/01/25 05:29:34;;;;;;;33.08;17.38;;;;;;;;;;5007205;28;20037;-74
2023/01/25 05:32:00;;;;;;;30.63;18.47;;;;;;;;;;5000607;28;20022;-73
2023/01/25 05:34:26;;;;;;;33.17;19.13;;;;;;;;;;5010442;28;20394;-74
2023/01/25 05:36:52;;;;;;;37.92;19.95;;;;;;;;;;5001696;28;20022;-74
2023/01/25 05:39:18;;;;;;;33.35;20.58;;;;;;;;;;5004806;28;20097;-75
2023/01/25 05:41:44;;;;;;;35.88;19.92;;;;;;;;;;5008390;28;20085;-74
2023/01/25 05:44:10;;;;;;;32.95;20.23;;;;;;;;;;4998722;28;20030;-74
2023/01/25 05:46:37;;;;;;;34.35;18.70;;;;;;;;;;5009412;28;20038;-74
2023/01/25 05:49:03;;;;;;;28.15;16.48;;;;;;;;;;5008292;28;20492;-74
2023/01/25 05:51:29;;;;;;;32.58;19.48;;;;;;;;;;5011841;28;20034;-74
2023/01/25 05:53:55;;;;;;;31.73;19.63;;;;;;;;;;5019319;28;20527;-73
2023/01/25 05:56:21;;;;;;;29.75;17.88;;;;;;;;;;4999644;28;20018;-72
2023/01/25 05:58:51;;;;;;;28.23;16.23;;;;;;;;;;5008893;28;20026;-74
2023/01/25 06:01:17;;;;;;;23.80;15.43;;;;;;;;;;5004299;28;20084;-74
2023/01/25 06:03:44;;;;;;;29.40;17.38;;;;;;;;;;4999887;28;20034;-73
2023/01/25 06:06:11;;;;;;;29.45;17.77;;;;;;;;;;5010730;28;20468;-75
2023/01/25 06:08:37;;;;;;;20.40;12.15;;;;;;;;;;4998550;28;20017;-76
2023/01/25 06:11:07;;;;;;;26.23;12.80;;;;;;;;;;5012774;28;20125;-75
2023/01/25 06:13:33;;;;;;;23.50;13.30;;;;;;;;;;5002717;28;20019;-75
2023/01/25 06:15:59;;;;;;;22.17;14.18;;;;;;;;;;5009507;28;20433;-77
2023/01/25 06:18:25;;;;;;;23.05;12.75;;;;;;;;;;4997431;28;20038;-74
2023/01/25 06:20:51;;;;;;;23.98;14.18;;;;;;;;;;5036275;22;20124;-78
2023/01/25 06:23:17;;;;;;;23.55;13.13;;;;;;;;;;5006037;28;20060;-81
2023/01/25 06:25:43;;;;;;;20.50;12.75;;;;;;;;;;5006977;28;20074;-82
2023/01/25 06:28:09;;;;;;;21.77;12.73;;;;;;;;;;5000523;28;20019;-80
2023/01/25 06:30:35;;;;;;;22.42;13.07;;;;;;;;;;5014071;28;20026;-80
2023/01/25 06:33:01;;;;;;;23.02;13.88;;;;;;;;;;5006452;28;20033;-80
2023/01/25 06:35:28;;;;;;;23.40;13.80;;;;;;;;;;5008496;28;20515;-81
2023/01/25 06:37:58;;;;;;;21.27;12.90;;;;;;;;;;5012291;28;20022;-80
2023/01/25 06:40:24;;;;;;;21.33;13.50;;;;;;;;;;5001605;28;20093;-81
2023/01/25 06:42:50;;;;;;;25.27;14.23;;;;;;;;;;5012433;28;20026;-80
2023/01/25 06:45:16;;;;;;;20.77;12.85;;;;;;;;;;4999283;28;20365;-80
2023/01/25 06:47:42;;;;;;;23.90;13.95;;;;;;;;;;5010482;28;20022;-79
2023/01/25 06:50:08;;;;;;;23.30;12.70;;;;;;;;;;5006528;28;20030;-79
2023/01/25 06:52:37;;;;;;;20.08;12.50;;;;;;;;;;5022576;28;20026;-79
2023/01/25 06:55:04;;;;;;;24.55;13.25;;;;;;;;;;5007712;28;20025;-79
2023/01/25 06:57:30;;;;;;;21.85;13.23;;;;;;;;;;5006713;28;20326;-80
2023/01/25 06:59:56;;;;;;;21.65;12.63;;;;;;;;;;5014963;28;20026;-81
2023/01/25 07:02:22;;;;;;;22.25;12.48;;;;;;;;;;5020900;28;20022;-79
2023/01/25 07:04:48;;;;;;;20.55;11.13;;;;;;;;;;5001698;28;20105;-79
2023/01/25 07:07:14;;;;;;;19.45;10.98;;;;;;;;;;5010350;28;20057;-81
2023/01/25 07:09:40;;;;;;;17.67;10.75;;;;;;;;;;5005749;28;20109;-80
2023/01/25 07:12:06;;;;;;;17.77;11.00;;;;;;;;;;4999918;28;20508;-79
2023/01/25 07:14:32;;;;;;;20.00;11.82;;;;;;;;;;4986069;28;20026;-78
2023/01/25 07:16:58;;;;;;;19.30;11.02;;;;;;;;;;5009962;28;20050;-81
2023/01/25 07:19:24;;;;;;;19.15;10.27;;;;;;;;;;5010802;28;20029;-79
2023/01/25 07:21:50;;;;;;;19.88;11.43;;;;;;;;;;5019596;28;20037;-78
2023/01/25 07:24:17;;;;;;;17.60;11.00;;;;;;;;;;4998703;28;20026;-79
2023/01/25 07:26:43;;;;;;;21.85;12.60;;;;;;;;;;5014565;28;20037;-79
2023/01/25 07:29:16;;;;;;;21.35;13.63;;;;;;;;;;5008381;28;20066;-79
2023/01/25 07:31:42;;;;;;;20.23;12.18;;;;;;;;;;5001580;28;20420;-78
2023/01/25 07:34:12;;;;;;;20.15;11.70;;;;;;;;;;5009547;28;20101;-79
2023/01/25 07:36:38;;;;;;;23.10;13.05;;;;;;;;;;4997800;28;20022;-79
2023/01/25 07:39:04;;;;;;;20.60;13.52;;;;;;;;;;5006754;28;20026;-79
2023/01/25 07:41:31;;;;;;;18.75;10.98;;;;;;;;;;5008971;28;20045;-79
2023/01/25 07:43:57;;;;;;;23.70;13.50;;;;;;;;;;5007455;28;20037;-79
2023/01/25 07:46:23;;;;;;;21.23;13.68;;;;;;;;;;5015126;28;20305;-78
2023/01/25 07:48:51;;;;;;;22.60;14.77;;;;;;;;;;4999762;28;20030;-79
2023/01/25 07:51:21;;;;;;;25.30;14.13;;;;;;;;;;5016150;28;20498;-79
2023/01/25 07:53:47;;;;;;;22.13;12.85;;;;;;;;;;5003030;28;20054;-79
2023/01/25 07:56:13;;;;;;;21.88;13.20;;;;;;;;;;5012058;28;20084;-80
2023/01/25 07:58:39;;;;;;;18.95;11.30;;;;;;;;;;4997584;28;20022;-80
2023/01/25 08:01:06;;;;;;;18.48;11.20;;;;;;;;;;5003526;28;20068;-80
2023/01/25 08:03:32;;;;;;;20.58;11.98;;;;;;;;;;5013944;28;20399;-79
2023/01/25 08:05:58;;;;;;;21.02;11.65;;;;;;;;;;5013628;28;20108;-79
2023/01/25 08:08:24;;;;;;;20.77;12.45;;;;;;;;;;4993333;28;20038;-78
2023/01/25 08:10:50;;;;;;;27.90;15.07;;;;;;;;;;5005939;28;20029;-78
2023/01/25 08:13:16;;;;;;;24.00;14.32;;;;;;;;;;5001038;28;20026;-78
2023/01/25 08:15:42;;;;;;;24.92;15.32;;;;;;;;;;4999783;28;20110;-78
2023/01/25 08:18:08;;;;;;;19.65;12.02;;;;;;;;;;5014603;28;20030;-78
2023/01/25 08:20:36;;;;;;;24.05;12.60;;;;;;;;;;5000333;28;20080;-79
2023/01/25 08:23:02;;;;;;;22.20;12.98;;;;;;;;;;5006402;28;20325;-81
2023/01/25 08:25:28;;;;;;;18.98;13.07;;;;;;;;;;5006064;28;20022;-79
2023/01/25 08:27:54;;;;;;;19.63;11.95;;;;;;;;;;5000256;28;20022;-81
2023/01/25 08:30:20;;;;;;;24.60;13.98;;;;;;;;;;5016228;28;20064;-80
2023/01/25 08:32:46;;;;;;;23.48;12.05;;;;;;;;;;5005300;28;20025;-77
2023/01/25 08:35:12;;;;;;;22.33;12.43;;;;;;;;;;5005526;28;20117;-79
2023/01/25 08:37:38;;;;;;;20.77;12.23;;;;;;;;;;5006151;28;20432;-80
2023/01/25 08:40:06;;;;;;;27.42;14.90;;;;;;;;;;4997968;28;20077;-80
2023/01/25 08:42:32;;;;;;;25.98;13.90;;;;;;;;;;4982401;28;20033;-80
2023/01/25 08:44:58;;;;;;;22.67;13.38;;;;;;;;;;5007994;28;20035;-80
2023/01/25 08:47:24;;;;;;;25.42;14.50;;;;;;;;;;5005745;28;20431;-80
2023/01/25 08:49:51;;;;;;;26.38;14.52;;;;;;;;;;5003532;28;20030;-80
2023/01/25 08:52:17;;;;;;;25.63;15.98;;;;;;;;;;5016419;28;20025;-80
2023/01/25 08:54:43;;;;;;;23.65;13.30;;;;;;;;;;5012951;28;20027;-80
2023/01/25 08:57:09;;;;;;;24.38;13.73;;;;;;;;;;5005692;28;20561;-81
2023/01/25 08:59:35;;;;;;;26.50;14.82;;;;;;;;;;5001260;28;20382;-80
2023/01/25 09:02:01;;;;;;;24.88;13.63;;;;;;;;;;4996360;28;20026;-79
2023/01/25 09:04:27;;;;;;;16.95;10.32;;;;;;;;;;5009681;28;20041;-80
2023/01/25 09:06:54;;;;;;;20.65;11.88;;;;;;;;;;5001028;28;20030;-79
2023/01/25 09:09:21;;;;;;;20.17;11.45;;;;;;;;;;5005690;28;20041;-80
2023/01/25 09:11:47;;;;;;;20.27;11.38;;;;;;;;;;5001916;28;20022;-80
2023/01/25 09:14:13;;;;;;;20.58;11.85;;;;;;;;;;4997651;28;20396;-79
2023/01/25 09:16:39;;;;;;;18.60;10.75;;;;;;;;;;4997218;28;20030;-80
2023/01/25 09:19:09;;;;;;;20.92;11.40;;;;;;;;;;5006216;28;20473;-79
2023/01/25 09:21:36;;;;;;;21.05;11.77;;;;;;;;;;5000410;28;20440;-79
2023/01/25 09:24:02;;;;;;;21.40;11.73;;;;;;;;;;5000150;28;20035;-79
2023/01/25 09:26:28;;;;;;;21.92;11.60;;;;;;;;;;5002164;28;20037;-80
2023/01/25 09:28:55;;;;;;;19.42;11.38;;;;;;;;;;5003272;28;20026;-80
2023/01/25 09:31:21;;;;;;;17.40;10.43;;;;;;;;;;5008810;28;20058;-81
2023/01/25 09:33:48;;;;;;;21.73;12.15;;;;;;;;;;5012667;28;20033;-80
2023/01/25 09:36:17;;;;;;;22.02;12.02;;;;;;;;;;4999563;28;20045;-80
2023/01/25 09:38:43;;;;;;;17.52;10.82;;;;;;;;;;5001476;28;20065;-79
2023/01/25 09:41:28;;;;;;;16.90;10.85;;;;;;;;;;4997892;28;20117;-79
2023/01/25 09:43:58;;;;;;;17.08;9.98;;;;;;;;;;5012516;28;20029;-79
2023/01/25 09:46:37;;;;;;;17.05;11.10;;;;;;;;;;4999412;28;20035;-79
2023/01/25 09:49:09;;;;;;;18.98;11.18;;;;;;;;;;5008927;28;20073;-79
2023/01/25 09:51:55;;;;;;;16.55;10.55;;;;;;;;;;5010420;28;20041;-80
2023/01/25 09:54:22;;;;;;;17.80;10.30;;;;;;;;;;4991360;28;20035;-79
2023/01/25 09:56:50;;;;;;;14.80;10.13;;;;;;;;;;5018612;28;20037;-82
2023/01/25 09:59:17;;;;;;;18.83;10.32;;;;;;;;;;5019426;28;20034;-80
2023/01/25 10:01:56;;;;;;;17.08;10.60;;;;;;;;;;5019324;28;20026;-80
2023/01/25 10:04:26;;;;;;;19.33;10.68;;;;;;;;;;5022875;28;20093;-80
2023/01/25 10:06:53;;;;;;;19.67;11.05;;;;;;;;;;5006076;28;20038;-80
2023/01/25 10:09:37;;;;;;;20.67;11.93;;;;;;;;;;5001795;28;20376;-79
2023/01/25 10:12:13;;;;;;;16.63;10.00;;;;;;;;;;5020612;28;20097;-80
2023/01/25 10:14:39;;;;;;;17.38;9.70;;;;;;;;;;4997355;28;20251;-80
2023/01/25 10:17:09;;;;;;;14.88;9.50;;;;;;;;;;5023642;28;20182;-80
2023/01/25 10:19:54;;;;;;;13.63;8.68;;;;;;;;;;5023350;28;20105;-81
2023/01/25 10:22:24;;;;;;;14.70;8.98;;;;;;;;;;5002628;28;20403;-81
2023/01/25 10:24:50;;;;;;;13.60;9.70;;;;;;;;;;5019564;28;20025;-80
2023/01/25 10:27:37;;;;;;;15.00;8.80;;;;;;;;;;5009433;28;20042;-80
2023/01/25 10:30:16;;;;;;;12.98;7.88;;;;;;;;;;5014835;28;20025;-80
2023/01/25 10:32:42;;;;;;;13.45;8.90;;;;;;;;;;4980546;28;20530;-81
2023/01/25 10:35:29;;;;;;;13.98;9.45;;;;;;;;;;4997066;28;20030;-81
2023/01/25 10:37:58;;;;;;;14.15;8.07;;;;;;;;;;5002251;28;20022;-79
2023/01/25 10:40:26;;;;;;;13.40;8.82;;;;;;;;;;5014632;28;20029;-81
2023/01/25 10:43:22;;;;;;;13.82;8.93;;;;;;;;;;5004902;28;20030;-80
2023/01/25 10:45:49;;;;;;;13.43;8.27;;;;;;;;;;4995634;28;20429;-81
2023/01/25 10:48:23;;;;;;;16.90;8.80;;;;;;;;;;4997076;28;20022;-79
2023/01/25 10:50:51;;;;;;;16.42;9.95;;;;;;;;;;4999475;28;20026;-80
2023/01/25 10:53:29;;;;;;;16.05;8.38;;;;;;;;;;5009637;28;20022;-80
2023/01/25 10:56:02;;;;;;;11.63;7.80;;;;;;;;;;5003817;28;20024;-80
2023/01/25 10:58:32;;;;;;;14.18;9.00;;;;;;;;;;5016134;28;20026;-80
2023/01/25 11:00:58;;;;;;;14.52;9.63;;;;;;;;;;5011281;28;20452;-82
2023/01/25 11:03:33;;;;;;;13.07;8.65;;;;;;;;;;5009075;28;20022;-81
2023/01/25 11:05:59;;;;;;;12.88;8.73;;;;;;;;;;5002689;28;20050;-80
2023/01/25 11:08:25;;;;;;;14.05;9.20;;;;;;;;;;4998744;28;20038;-80
2023/01/25 11:10:51;;;;;;;12.20;8.75;;;;;;;;;;5011915;28;20073;-81
2023/01/25 11:13:18;;;;;;;13.88;8.30;;;;;;;;;;5008400;28;20085;-82
2023/01/25 11:15:45;;;;;;;13.23;8.63;;;;;;;;;;5003789;28;20126;-80
2023/01/25 11:18:23;;;;;;;11.68;8.15;;;;;;;;;;5014466;28;20022;-80
2023/01/25 11:21:03;;;;;;;11.82;8.52;;;;;;;;;;5001592;28;20104;-81
2023/01/25 11:23:31;;;;;;;12.80;8.40;;;;;;;;;;5017879;28;20065;-80
2023/01/25 11:26:10;;;;;;;12.02;8.50;;;;;;;;;;5006687;28;20019;-79
2023/01/25 11:28:36;;;;;;;14.88;8.68;;;;;;;;;;5001502;28;20022;-81
2023/01/25 11:31:02;;;;;;;10.15;7.40;;;;;;;;;;5010301;28;20030;-81
2023/01/25 11:33:31;;;;;;;11.13;8.55;;;;;;;;;;5009516;28;20497;-79
2023/01/25 11:36:12;;;;;;;15.75;8.95;;;;;;;;;;5019216;28;20022;-80
2023/01/25 11:38:40;;;;;;;12.90;8.50;;;;;;;;;;5018800;28;20053;-79
2023/01/25 11:41:19;;;;;;;21.45;9.95;;;;;;;;;;5010866;28;20035;-81
2023/01/25 11:43:45;;;;;;;14.55;8.45;;;;;;;;;;5013628;28;20439;-81
2023/01/25 11:46:11;;;;;;;14.30;8.48;;;;;;;;;;5004100;28;20026;-81
2023/01/25 11:48:46;;;;;;;14.07;8.73;;;;;;;;;;5016337;28;20018;-80
2023/01/25 11:51:12;;;;;;;12.02;8.35;;;;;;;;;;5005835;28;20038;-80
2023/01/25 11:54:05;;;;;;;13.40;8.60;;;;;;;;;;5008722;28;20019;-81
2023/01/25 11:56:50;;;;;;;12.48;8.52;;;;;;;;;;4976331;28;20037;-78
2023/01/25 11:59:22;;;;;;;14.77;8.38;;;;;;;;;;5013855;28;20022;-78
2023/01/25 12:01:57;;;;;;;13.82;9.00;;;;;;;;;;5024931;28;20028;-81
2023/01/25 12:04:47;;;;;;;14.38;8.95;;;;;;;;;;5011081;28;20077;-81
2023/01/25 12:07:39;;;;;;;12.85;8.50;;;;;;;;;;5013113;28;20040;-80
2023/01/25 12:10:44;;;;;;;10.82;7.50;;;;;;;;;;5006928;28;20038;-81
2023/01/25 12:13:29;;;;;;;13.55;8.05;;;;;;;;;;4945243;29;20067;-82
2023/01/25 12:16:03;;;;;;;11.45;7.43;;;;;;;;;;4963989;29;20078;-82
2023/01/25 12:18:41;;;;;;;12.25;8.18;;;;;;;;;;4987948;28;20030;-82
2023/01/25 12:21:10;;;;;;;11.88;8.20;;;;;;;;;;5023322;22;20050;-73
2023/01/25 12:24:09;;;;;;;14.07;8.60;;;;;;;;;;5002412;28;20030;-72
2023/01/25 12:26:38;;;;;;;11.15;7.43;;;;;;;;;;4960333;28;20483;-72
2023/01/25 12:29:10;;;;;;;13.88;7.72;;;;;;;;;;4998027;28;20021;-73
2023/01/25 12:31:36;;;;;;;14.45;8.90;;;;;;;;;;4999428;28;20030;-73
2023/01/25 12:34:12;;;;;;;12.68;8.38;;;;;;;;;;5007231;28;20029;-73
2023/01/25 12:36:40;;;;;;;12.90;7.88;;;;;;;;;;4980711;28;20022;-76
2023/01/25 12:39:13;;;;;;;15.23;9.23;;;;;;;;;;5002996;28;20034;-75
2023/01/25 12:41:42;;;;;;;14.10;8.98;;;;;;;;;;5004224;28;20351;-73
2023/01/25 12:44:15;;;;;;;13.13;8.55;;;;;;;;;;4995103;28;20169;-70
2023/01/25 12:47:01;;;;;;;13.25;7.25;;;;;;;;;;5006707;28;20023;-74
2023/01/25 12:49:34;;;;;;;12.45;8.38;;;;;;;;;;4992471;28;20023;-74
2023/01/25 12:52:03;;;;;;;14.80;9.48;;;;;;;;;;4994459;28;20034;-74
2023/01/25 12:54:32;;;;;;;14.98;9.45;;;;;;;;;;5000632;28;20010;-74
2023/01/25 12:56:58;;;;;;;14.82;9.00;;;;;;;;;;4991718;28;20022;-73
2023/01/25 12:59:27;;;;;;;15.40;9.13;;;;;;;;;;5002235;28;20026;-74
2023/01/25 13:02:09;;;;;;;15.68;10.00;;;;;;;;;;4996952;28;20038;-74
2023/01/25 13:04:52;;;;;;;13.95;8.88;;;;;;;;;;4980180;28;20084;-74
2023/01/25 13:07:29;;;;;;;13.90;8.55;;;;;;;;;;5000686;28;20101;-75
2023/01/25 13:10:05;;;;;;;14.40;10.32;;;;;;;;;;4990702;28;20026;-74
2023/01/25 13:12:50;;;;;;;13.85;9.00;;;;;;;;;;4993678;28;20052;-74
2023/01/25 13:15:35;;;;;;;14.02;9.00;;;;;;;;;;4983091;28;20038;-74
2023/01/25 13:18:01;;;;;;;17.38;10.65;;;;;;;;;;4989820;28;20471;-74
2023/01/25 13:20:47;;;;;;;15.07;9.48;;;;;;;;;;5007138;28;20097;-75
2023/01/25 13:23:30;;;;;;;17.48;9.73;;;;;;;;;;4998718;28;20041;-74
2023/01/25 13:26:15;;;;;;;16.83;10.30;;;;;;;;;;4994156;28;20053;-73
2023/01/25 13:28:43;;;;;;;17.10;10.38;;;;;;;;;;4993702;28;20033;-75
2023/01/25 13:31:09;;;;;;;16.38;10.38;;;;;;;;;;4999360;28;20139;-75
2023/01/25 13:33:36;;;;;;;18.08;11.18;;;;;;;;;;5003445;28;20134;-74
2023/01/25 13:36:21;;;;;;;17.95;10.38;;;;;;;;;;4997822;28;20022;-73
2023/01/25 13:38:47;;;;;;;12.70;9.32;;;;;;;;;;4985997;28;20560;-72
2023/01/25 13:41:15;;;;;;;18.13;10.07;;;;;;;;;;5012878;28;20034;-72
2023/01/25 13:43:45;;;;;;;15.77;9.02;;;;;;;;;;5013343;28;20466;-71
2023/01/25 13:46:13;;;;;;;15.10;9.80;;;;;;;;;;5012542;28;20091;-72
2023/01/25 13:48:47;;;;;;;15.48;8.82;;;;;;;;;;5012916;28;20368;-71
2023/01/25 13:51:15;;;;;;;16.65;8.88;;;;;;;;;;5013461;28;20033;-71
2023/01/25 13:53:42;;;;;;;15.95;9.90;;;;;;;;;;5013922;28;20026;-71
2023/01/25 13:56:24;;;;;;;14.95;9.82;;;;;;;;;;5014229;28;20014;-72
2023/01/25 13:58:50;;;;;;;16.98;9.77;;;;;;;;;;5014217;28;20439;-72
2023/01/25 14:01:18;;;;;;;16.40;10.57;;;;;;;;;;5014931;28;20087;-71
2023/01/25 14:03:45;;;;;;;14.35;9.95;;;;;;;;;;5015917;28;20026;-71
2023/01/25 14:06:19;;;;;;;17.00;10.23;;;;;;;;;;5015868;28;20029;-71
2023/01/25 14:08:45;;;;;;;16.67;10.65;;;;;;;;;;5001952;28;20034;-69
2023/01/25 14:11:17;;;;;;;15.32;10.57;;;;;;;;;;4974960;28;20085;-70
2023/01/25 14:14:00;;;;;;;16.65;10.98;;;;;;;;;;4976177;28;20097;-70
2023/01/25 14:16:28;;;;;;;20.88;12.85;;;;;;;;;;4975203;28;20031;-71
2023/01/25 14:18:55;;;;;;;20.50;11.63;;;;;;;;;;4973173;28;20033;-71
2023/01/25 14:21:21;;;;;;;17.48;10.40;;;;;;;;;;4974660;28;20062;-70
2023/01/25 14:23:48;;;;;;;20.70;12.50;;;;;;;;;;4973460;28;20027;-72
2023/01/25 14:26:27;;;;;;;18.55;11.60;;;;;;;;;;4974973;28;20031;-71
2023/01/25 14:28:54;;;;;;;23.65;11.98;;;;;;;;;;4974911;28;20035;-70
2023/01/25 14:31:21;;;;;;;17.02;11.48;;;;;;;;;;4975253;28;20046;-71
2023/01/25 14:33:53;;;;;;;19.55;12.50;;;;;;;;;;4975365;28;20023;-72